Terminal Aerodrome Forecast
Issued by NWS

Home | Current Version | Previous Version | Graphics & Text | Print | Product List | Glossary On
Versions: 1 2 3 4 5 6 7 8 9 10 11 12 13 14 15 16 17 18 19 20
000
FTUS43 KICT 021120
TAFCNU
TAF
KCNU 021120Z 0212/0312 03008KT P6SM FEW009 SCT015 BKN250
     FM022000 03009KT P6SM VCSH SCT030 BKN060
     FM030200 03007KT P6SM SCT060 BKN150=

USA.gov is the U.S. government's official web portal to all federal, state and local government web resources and services.